createdAt,value
2023-01-04T00:01:24.185Z,8.99
2023-01-04T00:03:52.688Z,8.94
2023-01-04T00:06:21.294Z,8.83
2023-01-04T00:08:49.483Z,8.80
2023-01-04T00:11:19.701Z,8.89
2023-01-04T00:13:48.419Z,8.92
2023-01-04T00:16:18.807Z,8.87
2023-01-04T00:18:48.870Z,8.92
2023-01-04T00:21:18.255Z,8.99
2023-01-04T00:23:47.411Z,8.93
2023-01-04T00:26:17.674Z,8.98
2023-01-04T00:28:53.737Z,9.15
2023-01-04T00:31:23.009Z,8.86
2023-01-04T00:33:54.298Z,8.92
2023-01-04T00:36:22.916Z,8.89
2023-01-04T00:39:07.681Z,8.99
2023-01-04T00:44:26.332Z,8.78
2023-01-04T00:46:54.590Z,8.89
2023-01-04T00:49:24.294Z,8.82
2023-01-04T00:51:52.254Z,8.93
2023-01-04T00:54:20.508Z,8.85
2023-01-04T00:56:48.900Z,8.76
2023-01-04T00:59:19.316Z,8.67
2023-01-04T01:01:47.655Z,8.62
2023-01-04T01:04:18.165Z,8.59
2023-01-04T01:06:48.222Z,8.78
2023-01-04T01:09:17.223Z,8.72
2023-01-04T01:11:45.373Z,8.65
2023-01-04T01:14:17.581Z,8.62
2023-01-04T01:16:54.865Z,8.72
2023-01-04T01:19:24.137Z,8.61
2023-01-04T01:21:54.505Z,8.63
2023-01-04T01:24:22.525Z,8.54
2023-01-04T01:26:50.514Z,8.66
2023-01-04T01:29:18.589Z,8.59
2023-01-04T01:31:46.503Z,8.64
2023-01-04T01:34:14.893Z,8.59
2023-01-04T01:36:44.350Z,8.46
2023-01-04T01:39:14.071Z,8.62
2023-01-04T01:41:43.049Z,8.61
2023-01-04T01:44:45.297Z,8.51
2023-01-04T01:47:15.985Z,8.66
2023-01-04T01:49:45.694Z,8.64
2023-01-04T01:52:19.659Z,8.66
2023-01-04T01:54:55.075Z,8.48
2023-01-04T01:57:27.188Z,8.51
2023-01-04T01:59:59.125Z,8.59
2023-01-04T02:02:27.348Z,8.58
2023-01-04T02:04:56.693Z,8.59
2023-01-04T02:07:28.370Z,8.70
2023-01-04T02:09:59.324Z,8.73
2023-01-04T02:12:27.415Z,8.57
2023-01-04T02:14:55.301Z,8.63
2023-01-04T02:17:33.655Z,8.52
2023-01-04T02:20:26.922Z,8.56
2023-01-04T02:23:36.989Z,8.70
2023-01-04T02:26:37.658Z,8.67
2023-01-04T02:29:32.815Z,8.65
2023-01-04T02:32:04.750Z,8.73
2023-01-04T02:34:42.359Z,8.89
2023-01-04T02:37:19.716Z,8.79
2023-01-04T02:39:54.020Z,8.75
2023-01-04T02:42:50.156Z,8.82
2023-01-04T02:45:20.491Z,8.76
2023-01-04T02:48:07.613Z,8.72
2023-01-04T02:50:41.438Z,8.91
2023-01-04T02:53:13.134Z,8.86
2023-01-04T02:55:49.448Z,8.88
2023-01-04T02:58:32.786Z,8.92
2023-01-04T03:01:24.751Z,9.09
2023-01-04T03:04:24.765Z,9.09
2023-01-04T03:07:00.852Z,8.92
2023-01-04T03:09:32.882Z,8.93
2023-01-04T03:12:23.554Z,9.02
2023-01-04T03:14:53.414Z,9.16
2023-01-04T03:17:24.641Z,9.09
2023-01-04T03:19:56.159Z,9.24
2023-01-04T03:22:51.668Z,9.33
2023-01-04T03:25:42.372Z,9.24
2023-01-04T03:28:32.068Z,9.22
2023-01-04T03:31:23.035Z,9.27
2023-01-04T03:34:08.650Z,9.37
2023-01-04T03:36:47.190Z,9.53
2023-01-04T03:39:40.304Z,9.37
2023-01-04T03:42:32.991Z,9.47
2023-01-04T03:45:31.983Z,9.54
2023-01-04T03:48:26.881Z,9.62
2023-01-04T03:51:01.516Z,9.74
2023-01-04T03:53:32.397Z,9.66
2023-01-04T03:56:01.642Z,9.80
2023-01-04T03:58:29.729Z,9.82
2023-01-04T04:01:03.374Z,9.72
2023-01-04T04:03:49.743Z,9.74
2023-01-04T04:06:35.853Z,9.88
2023-01-04T04:09:05.687Z,9.85
2023-01-04T04:11:33.585Z,9.96
2023-01-04T04:14:02.096Z,10.06
2023-01-04T04:16:30.210Z,10.01
2023-01-04T04:19:01.840Z,10.10
2023-01-04T04:21:32.594Z,9.98
2023-01-04T04:24:00.468Z,10.10
2023-01-04T04:26:29.701Z,10.19
2023-01-04T04:28:57.813Z,10.18
2023-01-04T04:31:25.759Z,10.34
2023-01-04T04:33:53.889Z,10.35
2023-01-04T04:36:21.953Z,10.40
2023-01-04T04:38:49.820Z,10.43
2023-01-04T04:41:35.373Z,10.51
2023-01-04T04:44:04.936Z,10.48
2023-01-04T04:46:32.823Z,10.49
2023-01-04T04:49:00.796Z,10.49
2023-01-04T04:51:28.859Z,10.53
2023-01-04T04:53:56.965Z,10.68
2023-01-04T04:56:24.868Z,10.69
2023-01-04T04:58:52.777Z,10.75
2023-01-04T05:01:22.305Z,10.74
2023-01-04T05:03:50.520Z,10.66
2023-01-04T05:06:18.425Z,10.87
2023-01-04T05:08:46.391Z,10.75
2023-01-04T05:11:15.052Z,10.69
2023-01-04T05:13:42.127Z,10.74
2023-01-04T05:16:11.267Z,10.90
2023-01-04T05:18:40.632Z,10.87
2023-01-04T05:21:08.527Z,11.00
2023-01-04T05:23:36.467Z,10.95
2023-01-04T05:26:05.000Z,10.95
2023-01-04T05:28:33.091Z,10.94
2023-01-04T05:31:00.273Z,11.00
2023-01-04T05:33:30.365Z,11.02
2023-01-04T05:36:01.976Z,11.13
2023-01-04T05:38:30.411Z,10.91
2023-01-04T05:40:58.458Z,11.04
2023-01-04T05:43:26.572Z,11.11
2023-01-04T05:45:56.254Z,11.31
2023-01-04T05:48:26.059Z,11.07
2023-01-04T05:50:54.824Z,11.02
2023-01-04T05:53:24.041Z,11.10
2023-01-04T05:55:52.173Z,10.96
2023-01-04T05:58:20.058Z,10.94
2023-01-04T06:00:48.051Z,10.98
2023-01-04T06:03:16.349Z,11.04
2023-01-04T06:05:44.429Z,11.04
2023-01-04T06:08:12.322Z,10.99
2023-01-04T06:10:41.824Z,11.07
2023-01-04T06:13:09.914Z,11.02
2023-01-04T06:15:43.039Z,11.03
2023-01-04T06:18:13.882Z,11.13
2023-01-04T06:20:44.493Z,11.16
2023-01-04T06:23:12.458Z,11.17
2023-01-04T06:25:41.958Z,11.18
2023-01-04T06:28:10.031Z,11.19
2023-01-04T06:30:38.266Z,11.16
2023-01-04T06:33:06.566Z,11.17
2023-01-04T06:35:36.018Z,11.25
2023-01-04T06:38:04.134Z,11.28
2023-01-04T06:40:32.336Z,11.20
2023-01-04T06:43:01.636Z,11.25
2023-01-04T06:45:29.618Z,11.37
2023-01-04T06:47:57.589Z,11.30
2023-01-04T06:50:25.781Z,11.38
2023-01-04T06:52:53.799Z,11.38
2023-01-04T06:55:22.015Z,11.36
2023-01-04T06:57:52.893Z,11.28
2023-01-04T07:00:24.791Z,11.39
2023-01-04T07:03:14.598Z,11.52
2023-01-04T07:05:41.225Z,11.50
2023-01-04T07:08:09.425Z,11.46
2023-01-04T07:10:37.754Z,11.49
2023-01-04T07:13:06.390Z,11.37
2023-01-04T07:15:38.292Z,11.37
2023-01-04T07:18:08.521Z,11.31
2023-01-04T07:20:36.761Z,11.38
2023-01-04T07:23:05.623Z,11.33
2023-01-04T07:25:33.639Z,11.36
2023-01-04T07:28:01.788Z,11.29
2023-01-04T07:30:29.958Z,11.30
2023-01-04T07:32:59.340Z,11.39
2023-01-04T07:35:27.958Z,11.29
2023-01-04T07:37:58.941Z,11.23
2023-01-04T07:40:28.024Z,11.31
2023-01-04T07:42:58.218Z,11.26
2023-01-04T07:45:27.600Z,11.29
2023-01-04T07:47:55.938Z,11.33
2023-01-04T07:50:25.419Z,11.27
2023-01-04T07:52:53.435Z,11.31
2023-01-04T07:55:21.765Z,11.27
2023-01-04T07:57:49.797Z,11.30
2023-01-04T08:00:18.592Z,11.27
2023-01-04T08:02:46.877Z,11.40
2023-01-04T08:05:15.339Z,11.36
2023-01-04T08:07:45.091Z,11.31
2023-01-04T08:10:13.099Z,11.26
2023-01-04T08:12:41.057Z,11.26
2023-01-04T08:15:09.766Z,11.42
2023-01-04T08:17:37.805Z,11.36
2023-01-04T08:20:07.570Z,11.46
2023-01-04T08:22:35.477Z,11.35
2023-01-04T08:25:07.278Z,11.24
2023-01-04T08:27:35.285Z,11.42
2023-01-04T08:30:03.584Z,11.42
2023-01-04T08:32:31.854Z,11.42
2023-01-04T08:34:59.950Z,11.44
2023-01-04T08:37:28.434Z,11.35
2023-01-04T08:39:56.683Z,11.42
2023-01-04T08:42:31.011Z,11.44
2023-01-04T08:45:01.540Z,11.44
2023-01-04T08:47:32.237Z,11.32
2023-01-04T08:50:06.369Z,11.30
2023-01-04T08:52:38.153Z,11.45
2023-01-04T08:55:12.577Z,11.36
2023-01-04T08:57:43.001Z,11.28
2023-01-04T09:00:12.324Z,11.31
2023-01-04T09:02:40.667Z,11.30
2023-01-04T09:05:09.429Z,11.29
2023-01-04T09:07:37.344Z,11.28
2023-01-04T09:10:06.242Z,11.22
2023-01-04T09:12:34.402Z,11.23
2023-01-04T09:15:04.706Z,11.32
2023-01-04T09:17:32.761Z,11.27
2023-01-04T09:20:00.796Z,11.30
2023-01-04T09:22:28.764Z,11.47
2023-01-04T09:24:56.776Z,11.35
2023-01-04T09:27:25.627Z,11.42
2023-01-04T09:29:54.703Z,11.42
2023-01-04T09:32:24.153Z,11.45
2023-01-04T09:34:52.335Z,11.46
2023-01-04T09:37:21.483Z,11.50
2023-01-04T09:39:49.765Z,11.40
2023-01-04T09:42:23.642Z,11.33
2023-01-04T09:45:22.637Z,11.56
2023-01-04T09:47:47.267Z,11.62
2023-01-04T09:50:19.825Z,11.51
2023-01-04T09:52:58.932Z,11.60
2023-01-04T09:55:39.629Z,11.58
2023-01-04T09:58:17.910Z,11.63
2023-01-04T10:00:50.434Z,11.68
2023-01-04T10:03:25.042Z,11.76
2023-01-04T10:05:55.835Z,11.73
2023-01-04T10:08:24.419Z,11.76
2023-01-04T10:11:03.592Z,11.86
2023-01-04T10:13:48.044Z,11.92
2023-01-04T10:17:01.063Z,11.74
2023-01-04T10:22:26.280Z,11.85
2023-01-04T10:25:07.198Z,11.97
2023-01-04T10:27:44.093Z,12.09
2023-01-04T10:30:31.202Z,12.08
2023-01-04T10:33:11.159Z,12.00
2023-01-04T10:35:43.582Z,12.19
2023-01-04T10:38:18.061Z,12.11
2023-01-04T10:40:48.697Z,12.22
2023-01-04T10:43:23.646Z,12.24
2023-01-04T10:46:01.095Z,12.17
2023-01-04T10:48:40.306Z,12.17
2023-01-04T10:51:10.778Z,12.24
2023-01-04T10:53:45.862Z,12.24
2023-01-04T10:56:24.125Z,12.33
2023-01-04T10:59:04.392Z,12.44
2023-01-04T11:01:36.979Z,12.61
2023-01-04T11:04:12.965Z,12.53
2023-01-04T11:06:47.965Z,12.48
2023-01-04T11:09:25.084Z,12.47
2023-01-04T11:11:57.684Z,12.45
2023-01-04T11:14:27.714Z,12.54
2023-01-04T11:17:02.362Z,12.43
2023-01-04T11:19:31.078Z,12.49
2023-01-04T11:22:06.106Z,12.46
2023-01-04T11:24:35.524Z,12.60
2023-01-04T11:27:08.899Z,12.66
2023-01-04T11:29:42.660Z,12.67
2023-01-04T11:32:20.826Z,12.50
2023-01-04T11:34:52.101Z,12.63
2023-01-04T11:37:29.808Z,12.75
2023-01-04T11:40:21.151Z,12.72
2023-01-04T11:42:51.515Z,12.65
2023-01-04T11:45:23.885Z,12.75
2023-01-04T11:47:54.693Z,12.59
2023-01-04T11:50:40.668Z,12.54
2023-01-04T11:53:27.470Z,12.38
2023-01-04T11:56:17.043Z,12.49
2023-01-04T11:59:02.141Z,12.46
2023-01-04T12:01:30.563Z,12.50
2023-01-04T12:04:00.127Z,12.21
2023-01-04T12:06:37.624Z,12.40
2023-01-04T12:09:07.451Z,12.44
2023-01-04T12:11:38.517Z,12.50
2023-01-04T12:14:20.904Z,12.57
2023-01-04T12:16:54.850Z,12.76
2023-01-04T12:19:23.486Z,12.53
2023-01-04T12:21:54.457Z,12.56
2023-01-04T12:24:27.307Z,12.54
2023-01-04T12:26:56.075Z,12.58
2023-01-04T12:29:47.056Z,12.66
2023-01-04T12:32:46.473Z,12.57
2023-01-04T12:36:03.119Z,12.58
2023-01-04T12:39:00.443Z,12.75
2023-01-04T12:42:17.927Z,12.67
2023-01-04T12:45:03.524Z,12.56
2023-01-04T12:47:59.897Z,12.64
2023-01-04T12:50:31.012Z,12.56
2023-01-04T12:53:29.047Z,12.55
2023-01-04T12:55:54.296Z,12.69
2023-01-04T12:59:15.328Z,12.56
2023-01-04T13:01:32.009Z,12.67
2023-01-04T13:04:05.547Z,12.53
2023-01-04T13:06:43.950Z,12.71
2023-01-04T13:09:24.511Z,12.59
2023-01-04T13:12:09.397Z,12.52
2023-01-04T13:14:41.522Z,12.51
2023-01-04T13:17:19.129Z,12.52
2023-01-04T13:19:48.483Z,12.67
2023-01-04T13:22:29.553Z,12.71
2023-01-04T13:25:00.154Z,12.68
2023-01-04T13:27:28.827Z,12.61
2023-01-04T13:29:56.732Z,12.49
2023-01-04T13:32:28.806Z,12.47
2023-01-04T13:34:59.741Z,12.41
2023-01-04T13:37:31.141Z,12.44
2023-01-04T13:40:17.900Z,12.45
2023-01-04T13:42:49.045Z,12.53
2023-01-04T13:45:32.667Z,12.72
2023-01-04T13:48:06.220Z,12.58
2023-01-04T13:50:37.868Z,12.49
2023-01-04T13:53:08.487Z,12.55
2023-01-04T13:55:39.045Z,12.35
2023-01-04T13:58:16.887Z,12.46
2023-01-04T14:00:47.570Z,12.60
2023-01-04T14:03:34.170Z,12.46
2023-01-04T14:06:18.925Z,12.52
2023-01-04T14:08:54.553Z,12.51
2023-01-04T14:11:43.315Z,12.49
2023-01-04T14:14:30.775Z,12.56
2023-01-04T14:17:17.754Z,12.52
2023-01-04T14:19:49.914Z,12.44
2023-01-04T14:22:29.191Z,12.54
2023-01-04T14:25:15.311Z,12.47
2023-01-04T14:27:44.022Z,12.48
2023-01-04T14:30:25.355Z,12.59
2023-01-04T14:32:58.838Z,12.53
2023-01-04T14:35:30.396Z,12.56
2023-01-04T14:38:04.645Z,12.76
2023-01-04T14:40:34.231Z,12.55
2023-01-04T14:43:02.889Z,12.51
2023-01-04T14:45:31.813Z,12.61
2023-01-04T14:47:59.999Z,12.64
2023-01-04T14:50:29.604Z,12.45
2023-01-04T14:52:57.859Z,12.37
2023-01-04T14:55:25.985Z,12.32
2023-01-04T14:57:53.899Z,12.43
2023-01-04T15:00:21.807Z,12.42
2023-01-04T15:02:51.881Z,12.32
2023-01-04T15:05:20.769Z,12.32
2023-01-04T15:07:50.609Z,12.57
2023-01-04T15:10:23.943Z,12.45
2023-01-04T15:12:52.161Z,12.48
2023-01-04T15:15:20.932Z,12.51
2023-01-04T15:17:49.255Z,12.55
2023-01-04T15:20:17.396Z,12.37
2023-01-04T15:22:45.929Z,12.38
2023-01-04T15:25:15.460Z,12.44
2023-01-04T15:27:43.540Z,12.40
2023-01-04T15:30:12.528Z,12.47
2023-01-04T15:32:41.063Z,12.24
2023-01-04T15:35:09.540Z,12.28
2023-01-04T15:37:37.733Z,12.27
2023-01-04T15:40:06.887Z,12.39
2023-01-04T15:42:53.844Z,12.23
2023-01-04T15:45:23.809Z,12.22
2023-01-04T15:47:52.947Z,12.20
2023-01-04T15:50:21.495Z,12.16
2023-01-04T15:52:49.547Z,12.07
2023-01-04T15:55:17.805Z,12.19
2023-01-04T15:57:47.210Z,12.21
2023-01-04T16:00:16.351Z,12.19
2023-01-04T16:02:44.631Z,12.20
2023-01-04T16:05:12.910Z,12.26
2023-01-04T16:07:40.854Z,12.30
2023-01-04T16:10:09.614Z,12.31
2023-01-04T16:12:44.469Z,12.30
2023-01-04T16:15:16.032Z,12.15
2023-01-04T16:17:45.598Z,12.16
2023-01-04T16:20:15.195Z,12.28
2023-01-04T16:22:43.697Z,12.26
2023-01-04T16:25:12.884Z,12.30
2023-01-04T16:27:41.194Z,12.20
2023-01-04T16:30:13.657Z,12.23
2023-01-04T16:32:44.512Z,11.96
2023-01-04T16:35:13.380Z,12.18
2023-01-04T16:37:43.036Z,12.31
2023-01-04T16:40:12.332Z,12.18
2023-01-04T16:42:40.571Z,12.17
2023-01-04T16:45:10.056Z,12.03
2023-01-04T16:47:40.672Z,12.09
2023-01-04T16:50:10.829Z,12.04
2023-01-04T16:52:39.179Z,12.21
2023-01-04T16:55:08.471Z,12.21
2023-01-04T16:57:36.616Z,12.15
2023-01-04T17:00:06.109Z,12.10
2023-01-04T17:02:34.080Z,12.17
2023-01-04T17:05:02.238Z,12.10
2023-01-04T17:07:33.134Z,12.00
2023-01-04T17:10:01.829Z,11.81
2023-01-04T17:12:47.476Z,11.90
2023-01-04T17:18:04.310Z,11.95
2023-01-04T17:20:32.256Z,11.91
2023-01-04T17:23:01.898Z,11.83
2023-01-04T17:25:30.252Z,11.91
2023-01-04T17:27:58.378Z,11.77
2023-01-04T17:30:26.484Z,11.81
2023-01-04T17:32:54.663Z,12.02
2023-01-04T17:35:22.601Z,11.95
2023-01-04T17:37:50.789Z,11.80
2023-01-04T17:40:23.212Z,11.81
2023-01-04T17:42:51.870Z,11.94
2023-01-04T17:45:20.434Z,11.81
2023-01-04T17:47:48.595Z,11.91
2023-01-04T17:50:18.270Z,11.93
2023-01-04T17:52:47.605Z,11.99
2023-01-04T17:55:16.119Z,11.77
2023-01-04T17:57:45.831Z,11.82
2023-01-04T18:00:14.966Z,11.70
2023-01-04T18:02:43.727Z,11.84
2023-01-04T18:05:11.980Z,11.70
2023-01-04T18:07:39.944Z,11.52
2023-01-04T18:10:20.764Z,11.55
2023-01-04T18:12:56.358Z,11.64
2023-01-04T18:15:24.457Z,11.74
2023-01-04T18:17:52.391Z,11.67
2023-01-04T18:20:25.157Z,11.59
2023-01-04T18:22:53.236Z,11.60
2023-01-04T18:25:21.053Z,11.68
2023-01-04T18:27:48.981Z,11.66
2023-01-04T18:30:18.995Z,11.65
2023-01-04T18:32:46.894Z,11.48
2023-01-04T18:35:15.028Z,11.61
2023-01-04T18:37:45.140Z,11.71
2023-01-04T18:40:13.659Z,11.59
2023-01-04T18:42:41.831Z,11.69
2023-01-04T18:45:10.305Z,11.57
2023-01-04T18:47:39.662Z,11.55
2023-01-04T18:50:08.196Z,11.68
2023-01-04T18:52:37.142Z,11.77
2023-01-04T18:55:06.353Z,11.72
2023-01-04T18:57:34.345Z,11.64
2023-01-04T19:00:04.288Z,11.80
2023-01-04T19:02:32.568Z,11.56
2023-01-04T19:05:02.186Z,11.47
2023-01-04T19:07:30.186Z,11.43
2023-01-04T19:09:58.107Z,11.37
2023-01-04T19:12:26.295Z,11.51
2023-01-04T19:14:54.196Z,11.69
2023-01-04T19:17:24.601Z,11.57
2023-01-04T19:19:52.881Z,11.59
2023-01-04T19:22:22.132Z,11.66
2023-01-04T19:24:50.180Z,11.65
2023-01-04T19:27:19.435Z,11.60
2023-01-04T19:29:47.502Z,11.65
2023-01-04T19:32:19.228Z,11.88
2023-01-04T19:34:47.135Z,11.69
2023-01-04T19:37:14.994Z,11.47
2023-01-04T19:39:44.248Z,11.69
2023-01-04T19:42:12.312Z,11.75
2023-01-04T19:44:40.261Z,11.53
2023-01-04T19:47:08.194Z,11.50
2023-01-04T19:49:36.148Z,11.42
2023-01-04T19:52:04.236Z,11.51
2023-01-04T19:54:32.409Z,11.37
2023-01-04T19:57:01.807Z,11.47
2023-01-04T19:59:30.272Z,11.46
2023-01-04T20:01:58.822Z,11.29
2023-01-04T20:04:27.752Z,11.29
2023-01-04T20:06:55.948Z,11.32
2023-01-04T20:09:27.547Z,11.33
2023-01-04T20:11:55.659Z,11.21
2023-01-04T20:14:25.011Z,11.20
2023-01-04T20:16:53.223Z,11.41
2023-01-04T20:19:21.649Z,11.40
2023-01-04T20:21:49.776Z,11.51
2023-01-04T20:24:17.849Z,11.43
2023-01-04T20:26:46.707Z,11.48
2023-01-04T20:29:14.808Z,11.20
2023-01-04T20:31:45.942Z,11.40
2023-01-04T20:34:14.830Z,11.34
2023-01-04T20:36:43.093Z,11.42
2023-01-04T20:39:11.227Z,11.40
2023-01-04T20:41:59.811Z,11.22
2023-01-04T20:44:27.033Z,11.33
2023-01-04T20:46:56.779Z,11.31
2023-01-04T20:49:25.037Z,11.46
2023-01-04T20:51:53.051Z,11.42
2023-01-04T20:54:21.183Z,11.36
2023-01-04T20:56:49.427Z,11.36
2023-01-04T20:59:17.921Z,11.39
2023-01-04T21:01:45.968Z,11.41
2023-01-04T21:04:17.932Z,11.41
2023-01-04T21:06:45.974Z,11.41
2023-01-04T21:09:14.366Z,11.46
2023-01-04T21:11:45.688Z,11.54
2023-01-04T21:14:14.511Z,11.33
2023-01-04T21:16:42.651Z,11.39
2023-01-04T21:19:10.984Z,11.48
2023-01-04T21:21:40.689Z,11.33
2023-01-04T21:24:09.915Z,11.28
2023-01-04T21:26:38.242Z,11.40
2023-01-04T21:29:08.148Z,11.14
2023-01-04T21:31:36.323Z,11.36
2023-01-04T21:34:12.860Z,11.47
2023-01-04T21:36:43.952Z,11.33
2023-01-04T21:39:12.009Z,11.53
2023-01-04T21:41:46.015Z,11.54
2023-01-04T21:44:16.452Z,11.63
2023-01-04T21:46:44.483Z,11.60
2023-01-04T21:49:13.441Z,11.48
2023-01-04T21:51:41.417Z,11.29
2023-01-04T21:54:10.820Z,11.35
2023-01-04T21:56:39.495Z,11.41
2023-01-04T21:59:07.534Z,11.24
2023-01-04T22:01:36.003Z,11.31
2023-01-04T22:04:05.600Z,11.30
2023-01-04T22:06:37.562Z,11.22
2023-01-04T22:09:07.131Z,11.23
2023-01-04T22:11:37.469Z,11.28
2023-01-04T22:14:06.136Z,11.33
2023-01-04T22:16:34.440Z,11.40
2023-01-04T22:19:02.652Z,11.48
2023-01-04T22:21:30.963Z,11.35
2023-01-04T22:23:59.203Z,11.45
2023-01-04T22:26:27.689Z,11.36
2023-01-04T22:28:57.629Z,11.27
2023-01-04T22:31:25.570Z,11.30
2023-01-04T22:33:53.695Z,11.39
2023-01-04T22:36:23.605Z,11.19
2023-01-04T22:38:52.613Z,11.21
2023-01-04T22:41:22.247Z,11.16
2023-01-04T22:43:56.607Z,11.02
2023-01-04T22:46:27.837Z,11.06
2023-01-04T22:48:56.713Z,11.30
2023-01-04T22:51:27.491Z,11.15
2023-01-04T22:53:56.633Z,11.06
2023-01-04T22:56:25.522Z,11.03
2023-01-04T22:58:55.571Z,11.05
2023-01-04T23:01:26.486Z,11.09
2023-01-04T23:03:55.534Z,11.21
2023-01-04T23:06:25.240Z,11.07
2023-01-04T23:08:57.747Z,11.16
2023-01-04T23:11:26.584Z,11.10
2023-01-04T23:13:55.195Z,10.86
2023-01-04T23:16:31.990Z,10.86
2023-01-04T23:19:00.874Z,10.81
2023-01-04T23:21:28.995Z,10.90
2023-01-04T23:23:56.962Z,10.97
2023-01-04T23:26:26.368Z,11.03
2023-01-04T23:28:54.314Z,11.00
2023-01-04T23:31:26.298Z,10.68
2023-01-04T23:33:56.418Z,10.82
2023-01-04T23:36:26.155Z,10.54
2023-01-04T23:38:55.897Z,10.62
2023-01-04T23:41:44.177Z,10.78
2023-01-04T23:44:13.991Z,10.61
2023-01-04T23:46:44.136Z,10.60
2023-01-04T23:49:12.878Z,10.67
2023-01-04T23:51:42.468Z,10.82
2023-01-04T23:54:10.770Z,10.64
2023-01-04T23:56:39.309Z,10.79
2023-01-04T23:59:08.020Z,10.71
